Time;durP1;ratioP1;P1;durP2;ratioP2;P2;SDS_P1;SDS_P2;PMS_P1;PMS_P2;Temp;Humidity;BMP_temperature;BMP_pressure;BME280_temperature;BME280_humidity;BME280_pressure;Samples;Min_cycle;Max_cycle;Signal;HPM_P1;HPM_P2
2021/12/24 00:02:34;;;;;;;12.50;5.90;;;21.80;65.00;;;;;;7840766;28;20185;-64
2021/12/24 00:06:19;;;;;;;6.95;5.88;;;21.80;65.00;;;;;;7840713;28;20280;-64
2021/12/24 00:10:09;;;;;;;8.15;5.80;;;21.80;64.90;;;;;;7840189;28;20210;-64
2021/12/24 00:13:54;;;;;;;8.82;6.13;;;21.80;64.80;;;;;;7840593;28;20256;-65
2021/12/24 00:17:40;;;;;;;10.02;5.57;;;21.80;64.70;;;;;;7839966;28;20261;-64
2021/12/24 00:37:26;;;;;;;7.63;5.72;;;21.80;64.30;;;;;;7839788;28;20181;-64
2021/12/24 00:41:13;;;;;;;8.55;5.35;;;21.80;64.20;;;;;;7839719;28;20333;-64
2021/12/24 00:44:58;;;;;;;6.97;4.97;;;21.70;64.20;;;;;;7839079;28;20290;-64
2021/12/24 00:48:46;;;;;;;6.13;5.30;;;21.80;64.40;;;;;;7839246;28;20213;-64
2021/12/24 00:52:46;;;;;;;7.00;5.22;;;21.70;64.40;;;;;;7839256;28;20193;-64
2021/12/24 00:56:31;;;;;;;6.50;4.90;;;21.70;64.50;;;;;;7839089;28;20261;-64
2021/12/24 01:00:31;;;;;;;8.10;5.28;;;21.80;65.10;;;;;;7838756;28;20193;-64
2021/12/24 01:04:16;;;;;;;7.25;4.82;;;21.70;64.50;;;;;;7839039;28;20277;-64
2021/12/24 01:08:03;;;;;;;6.97;5.13;;;21.80;64.80;;;;;;7852738;28;20197;-62
2021/12/24 01:11:49;;;;;;;5.55;4.85;;;21.70;64.70;;;;;;7870043;28;20170;-64
2021/12/24 01:15:38;;;;;;;8.20;4.88;;;21.70;64.60;;;;;;7870264;28;20172;-64
2021/12/24 01:19:26;;;;;;;7.07;4.90;;;21.70;64.80;;;;;;7869701;28;20193;-65
2021/12/24 01:23:33;;;;;;;6.38;5.13;;;21.70;64.70;;;;;;7869734;28;20682;-64
2021/12/24 01:27:52;;;;;;;7.53;4.18;;;21.70;64.80;;;;;;7869749;28;20208;-63
2021/12/24 01:39:54;;;;;;;6.07;4.90;;;21.60;64.70;;;;;;7869860;28;20782;-64
2021/12/24 01:43:40;;;;;;;7.30;4.18;;;21.60;64.70;;;;;;7869331;28;20280;-65
2021/12/24 01:47:26;;;;;;;8.85;4.35;;;21.60;64.70;;;;;;7869157;28;20205;-65
2021/12/24 01:51:12;;;;;;;6.78;4.30;;;21.50;64.80;;;;;;7869312;28;20248;-64
2021/12/24 01:54:58;;;;;;;7.22;4.25;;;21.50;64.70;;;;;;7869904;28;20189;-64
2021/12/24 01:58:43;;;;;;;5.10;3.97;;;21.50;64.70;;;;;;7875256;28;20343;-64
2021/12/24 02:02:30;;;;;;;4.75;4.03;;;21.50;64.80;;;;;;7875353;28;20684;-64
2021/12/24 02:06:15;;;;;;;4.68;4.10;;;21.50;64.90;;;;;;7875229;28;20188;-64
2021/12/24 02:10:01;;;;;;;5.32;4.05;;;21.40;64.90;;;;;;7874653;28;20670;-65
2021/12/24 02:13:47;;;;;;;6.55;4.30;;;21.40;64.80;;;;;;7874911;28;20661;-64
2021/12/24 02:17:58;;;;;;;9.88;3.63;;;21.40;65.00;;;;;;7874550;28;20172;-64
2021/12/24 02:29:52;;;;;;;4.85;3.83;;;21.40;65.10;;;;;;7874234;28;20237;-64
2021/12/24 02:33:38;;;;;;;7.20;3.90;;;21.30;65.10;;;;;;7876324;28;20208;-64
2021/12/24 02:37:24;;;;;;;7.68;3.63;;;21.30;65.10;;;;;;7874309;28;20174;-64
2021/12/24 02:41:10;;;;;;;4.97;3.40;;;21.30;65.30;;;;;;7874093;28;20918;-64
2021/12/24 02:44:56;;;;;;;4.75;3.42;;;21.30;65.20;;;;;;7874018;28;20206;-64
2021/12/24 02:56:53;;;;;;;3.90;3.35;;;21.20;65.30;;;;;;7887786;28;20186;-63
2021/12/24 03:00:39;;;;;;;4.03;2.88;;;21.20;65.40;;;;;;7893662;28;20211;-64
2021/12/24 03:04:25;;;;;;;4.88;3.35;;;21.20;65.50;;;;;;7904914;28;20213;-63
2021/12/24 03:08:10;;;;;;;3.30;2.80;;;21.20;65.40;;;;;;7897487;28;20205;-64
2021/12/24 03:11:58;;;;;;;5.88;3.00;;;21.10;65.40;;;;;;7875302;28;20193;-64
2021/12/24 03:15:44;;;;;;;4.60;3.13;;;21.20;65.60;;;;;;7873508;28;20586;-65
2021/12/24 03:19:32;;;;;;;5.15;3.10;;;21.10;65.50;;;;;;7874365;28;20255;-64
2021/12/24 03:23:35;;;;;;;3.58;3.08;;;21.10;65.50;;;;;;7891535;28;20175;-64
2021/12/24 03:27:22;;;;;;;4.13;2.95;;;21.10;65.50;;;;;;7904998;28;20240;-63
2021/12/24 03:31:08;;;;;;;2.78;2.55;;;21.10;65.50;;;;;;7903910;28;20188;-64
2021/12/24 03:34:54;;;;;;;3.03;2.55;;;21.10;65.60;;;;;;7904326;28;20176;-64
2021/12/24 03:38:39;;;;;;;3.65;2.80;;;21.10;65.60;;;;;;7903111;28;20181;-64
2021/12/24 03:42:25;;;;;;;3.17;2.63;;;21.00;65.50;;;;;;7903550;28;20200;-64
2021/12/24 03:46:15;;;;;;;3.03;2.70;;;21.00;65.60;;;;;;7903476;28;20201;-64
2021/12/24 03:50:06;;;;;;;3.13;2.72;;;21.00;65.60;;;;;;7902423;28;20680;-64
2021/12/24 03:57:56;;;;;;;3.63;2.70;;;21.00;65.70;;;;;;7902440;28;20172;-64
2021/12/24 04:01:42;;;;;;;2.78;2.38;;;21.00;65.70;;;;;;7902904;28;20241;-64
2021/12/24 04:05:27;;;;;;;2.75;2.38;;;21.00;65.80;;;;;;7902829;28;20520;-64
2021/12/24 04:09:13;;;;;;;2.30;2.10;;;20.90;65.70;;;;;;7901750;28;20674;-63
2021/12/24 04:12:58;;;;;;;4.38;2.83;;;20.90;65.80;;;;;;7902598;28;20272;-64
2021/12/24 04:16:44;;;;;;;3.13;2.83;;;21.00;65.80;;;;;;7902437;28;20179;-64
2021/12/24 04:24:53;;;;;;;2.20;1.70;;;20.90;65.80;;;;;;7903047;28;20180;-64
2021/12/24 04:28:38;;;;;;;2.67;2.08;;;20.90;65.80;;;;;;7900941;28;20700;-64
2021/12/24 04:32:33;;;;;;;2.90;2.40;;;20.90;65.80;;;;;;7893908;28;20809;-63
2021/12/24 05:04:26;;;;;;;3.35;1.80;;;20.70;66.20;;;;;;7900347;28;20196;-64
2021/12/24 05:11:57;;;;;;;2.00;1.67;;;20.70;66.40;;;;;;7887418;28;20664;-63
2021/12/24 05:15:47;;;;;;;3.45;2.00;;;20.70;66.50;;;;;;7879197;28;20619;-65
2021/12/24 05:23:38;;;;;;;2.15;1.63;;;20.70;66.50;;;;;;7847956;28;20295;-63
2021/12/24 05:27:23;;;;;;;2.15;1.80;;;20.60;66.50;;;;;;7894011;28;20677;-63
2021/12/24 05:31:09;;;;;;;1.75;1.65;;;20.60;66.50;;;;;;7885451;28;20250;-66
2021/12/24 05:34:54;;;;;;;2.17;1.65;;;20.70;66.60;;;;;;7884127;28;20181;-64
2021/12/24 05:38:40;;;;;;;14.02;2.10;;;20.60;66.60;;;;;;7872044;28;20650;-65
2021/12/24 05:42:27;;;;;;;13.35;1.77;;;20.60;66.60;;;;;;7902648;28;20200;-64
2021/12/24 05:46:13;;;;;;;27.05;2.08;;;20.70;66.80;;;;;;7901784;28;20164;-60
2021/12/24 05:50:00;;;;;;;28.20;2.78;;;20.70;66.70;;;;;;7898657;28;20212;-63
2021/12/24 05:53:46;;;;;;;20.33;2.13;;;20.60;65.50;;;;;;7875041;28;20181;-64
2021/12/24 05:57:32;;;;;;;24.90;2.20;;;20.60;66.00;;;;;;7868026;28;20181;-63
2021/12/24 06:01:17;;;;;;;16.95;2.15;;;20.60;66.50;;;;;;7867800;28;20208;-64
2021/12/24 06:05:03;;;;;;;13.38;1.90;;;20.60;66.50;;;;;;7868632;28;20181;-64
2021/12/24 06:08:49;;;;;;;7.53;2.10;;;20.60;66.60;;;;;;7868018;28;20204;-63
2021/12/24 06:12:35;;;;;;;16.33;1.77;;;20.60;66.70;;;;;;7868532;28;20208;-65
2021/12/24 06:16:20;;;;;;;19.65;1.95;;;20.60;66.70;;;;;;7868431;28;20260;-64
2021/12/24 06:20:08;;;;;;;12.68;1.90;;;20.60;66.70;;;;;;7867539;28;20193;-64
2021/12/24 06:23:54;;;;;;;8.32;1.70;;;20.50;66.60;;;;;;7868317;28;20205;-64
2021/12/24 06:27:39;;;;;;;8.75;1.90;;;20.50;66.60;;;;;;7867436;28;20204;-65
2021/12/24 06:31:25;;;;;;;9.15;1.98;;;20.50;66.70;;;;;;7868103;28;20266;-64
2021/12/24 06:35:10;;;;;;;13.98;1.98;;;20.50;66.70;;;;;;7868116;28;20188;-64
2021/12/24 06:38:56;;;;;;;4.65;1.70;;;20.50;66.60;;;;;;7867460;28;20661;-65
2021/12/24 06:42:41;;;;;;;8.75;1.73;;;20.50;66.60;;;;;;7871198;28;20575;-65
2021/12/24 06:46:27;;;;;;;10.25;2.17;;;20.50;66.60;;;;;;7873698;28;20173;-64
2021/12/24 06:50:13;;;;;;;12.77;1.85;;;20.50;66.60;;;;;;7872592;28;20224;-65
2021/12/24 06:53:59;;;;;;;7.05;2.25;;;20.50;66.50;;;;;;7873535;28;20234;-63
2021/12/24 06:57:44;;;;;;;5.70;2.13;;;20.50;66.20;;;;;;7894227;28;20188;-62
2021/12/24 07:01:30;;;;;;;9.60;2.08;;;20.50;66.10;;;;;;7904791;28;20188;-63
2021/12/24 07:05:16;;;;;;;6.55;1.40;;;20.50;65.70;;;;;;7897541;28;20177;-64
2021/12/24 07:09:02;;;;;;;4.45;1.67;;;20.40;65.70;;;;;;7872693;28;20205;-65
2021/12/24 07:12:48;;;;;;;20.65;2.15;;;20.50;66.20;;;;;;7873499;28;20196;-64
2021/12/24 07:16:33;;;;;;;13.70;1.90;;;20.50;66.50;;;;;;7877822;28;20176;-64
2021/12/24 07:20:19;;;;;;;5.38;1.65;;;20.50;66.30;;;;;;7901851;28;20204;-63
2021/12/24 07:24:06;;;;;;;10.48;2.00;;;20.50;66.00;;;;;;7904320;28;20649;-62
2021/12/24 07:27:51;;;;;;;6.72;1.90;;;20.50;66.20;;;;;;7903655;28;20232;-63
2021/12/24 07:31:37;;;;;;;6.25;1.70;;;20.40;66.20;;;;;;7904106;28;20208;-60
2021/12/24 07:35:23;;;;;;;5.63;1.48;;;20.40;66.20;;;;;;7904012;28;20173;-58
2021/12/24 07:39:09;;;;;;;5.30;2.10;;;20.40;66.20;;;;;;7903097;28;20168;-59
2021/12/24 07:42:55;;;;;;;4.57;1.50;;;20.40;66.20;;;;;;7873626;28;20317;-61
2021/12/24 07:46:46;;;;;;;7.30;1.63;;;20.40;66.30;;;;;;7872030;28;20638;-60
2021/12/24 07:54:18;;;;;;;14.82;1.55;;;20.40;66.30;;;;;;7903275;28;20173;-62
2021/12/24 07:58:05;;;;;;;12.30;2.35;;;20.40;66.40;;;;;;7902399;28;20181;-66
2021/12/24 08:01:53;;;;;;;10.88;1.80;;;20.40;65.90;;;;;;7902915;28;20196;-66
2021/12/24 08:05:40;;;;;;;11.80;1.67;;;20.40;65.20;;;;;;7902877;28;20664;-67
2021/12/24 08:09:25;;;;;;;4.72;1.45;;;20.40;65.80;;;;;;7901967;28;20274;-67
2021/12/24 08:13:11;;;;;;;4.47;1.60;;;20.40;65.90;;;;;;7902635;28;20172;-67
2021/12/24 08:16:56;;;;;;;3.45;1.50;;;20.40;66.00;;;;;;7902516;28;20180;-67
2021/12/24 08:20:42;;;;;;;3.70;1.60;;;20.40;66.00;;;;;;7901330;28;20283;-67
2021/12/24 08:24:28;;;;;;;6.00;1.95;;;20.30;66.10;;;;;;7902295;28;20165;-67
2021/12/24 08:28:13;;;;;;;3.35;1.50;;;20.30;66.00;;;;;;7901456;28;20208;-65
2021/12/24 08:32:01;;;;;;;3.42;1.30;;;20.30;66.10;;;;;;7902069;28;20193;-66
2021/12/24 08:35:46;;;;;;;3.72;1.38;;;20.30;66.20;;;;;;7902109;28;20207;-66
2021/12/24 08:39:32;;;;;;;3.25;1.30;;;20.30;66.30;;;;;;7901242;28;20267;-65
2021/12/24 08:43:18;;;;;;;1.60;1.20;;;20.30;66.30;;;;;;7901812;28;20177;-66
2021/12/24 08:47:05;;;;;;;1.88;1.40;;;20.40;66.40;;;;;;7901153;28;20189;-66
2021/12/24 08:50:51;;;;;;;5.03;2.03;;;20.30;66.20;;;;;;7901343;28;20266;-66
2021/12/24 08:54:36;;;;;;;1.90;1.70;;;20.30;65.50;;;;;;7901506;28;20177;-64
2021/12/24 08:58:23;;;;;;;3.03;1.80;;;20.20;63.20;;;;;;7900938;28;20673;-67
2021/12/24 09:02:08;;;;;;;12.63;2.10;;;20.00;64.20;;;;;;7901207;28;20610;-69
2021/12/24 09:05:54;;;;;;;8.13;1.83;;;20.10;65.10;;;;;;7900758;28;20180;-68
2021/12/24 09:09:40;;;;;;;15.73;2.67;;;20.10;65.80;;;;;;7900322;28;20283;-65
2021/12/24 09:13:25;;;;;;;35.10;3.63;;;20.10;64.80;;;;;;7901127;28;20314;-67
2021/12/24 09:17:10;;;;;;;23.10;3.38;;;20.10;74.30;;;;;;7900903;28;20181;-68
2021/12/24 09:21:00;;;;;;;24.85;2.90;;;20.10;70.80;;;;;;7900187;28;20659;-66
2021/12/24 09:24:49;;;;;;;19.55;3.13;;;20.20;69.70;;;;;;7900906;28;20579;-66
2021/12/24 09:28:35;;;;;;;16.27;2.72;;;20.10;69.20;;;;;;7899519;28;20287;-65
2021/12/24 09:32:20;;;;;;;10.52;2.42;;;20.20;68.00;;;;;;7869257;28;20197;-66
2021/12/24 09:36:06;;;;;;;17.67;2.45;;;20.10;66.20;;;;;;7888149;28;20709;-63
2021/12/24 09:39:52;;;;;;;61.88;4.05;;;20.10;66.90;;;;;;7899261;28;20188;-66
2021/12/24 09:43:37;;;;;;;17.60;2.55;;;20.10;68.50;;;;;;7899474;28;20184;-68
2021/12/24 09:47:23;;;;;;;14.30;2.80;;;20.10;70.50;;;;;;7899709;28;20251;-56
2021/12/24 09:51:09;;;;;;;12.13;2.30;;;20.20;68.20;;;;;;7898365;28;20235;-58
2021/12/24 09:54:55;;;;;;;12.70;2.10;;;20.20;66.20;;;;;;7900157;28;20646;-58
2021/12/24 09:58:40;;;;;;;9.30;2.40;;;20.20;65.40;;;;;;7899429;28;20276;-55
2021/12/24 10:02:40;;;;;;;25.88;3.65;;;20.10;66.10;;;;;;7900026;28;20228;-55
2021/12/24 10:06:26;;;;;;;13.10;2.75;;;20.00;64.90;;;;;;7900193;28;20176;-58
2021/12/24 10:10:11;;;;;;;10.68;2.42;;;20.00;66.50;;;;;;7875432;28;20221;-57
2021/12/24 10:14:04;;;;;;;114.68;8.85;;;20.00;64.50;;;;;;7868550;28;20239;-56
2021/12/24 10:17:49;;;;;;;316.85;21.63;;;19.90;66.40;;;;;;7871759;28;20306;-51
2021/12/24 10:21:35;;;;;;;53.90;5.57;;;19.80;63.90;;;;;;7874560;28;20201;-54
2021/12/24 10:25:25;;;;;;;51.10;5.40;;;19.80;65.90;;;;;;7874507;28;20180;-56
2021/12/24 10:29:32;;;;;;;55.92;4.50;;;19.80;65.50;;;;;;7873387;28;20779;-52
2021/12/24 10:33:18;;;;;;;47.50;5.57;;;19.80;67.50;;;;;;7874265;28;20173;-56
2021/12/24 10:37:06;;;;;;;44.47;4.50;;;19.80;67.90;;;;;;7874128;28;20170;-57
2021/12/24 10:40:55;;;;;;;48.05;4.25;;;19.90;67.80;;;;;;7873276;28;20189;-56
2021/12/24 10:44:42;;;;;;;42.75;3.65;;;20.00;67.80;;;;;;7873909;28;20181;-53
2021/12/24 10:48:28;;;;;;;40.60;4.78;;;20.10;68.50;;;;;;7873394;28;20284;-55
2021/12/24 10:56:06;;;;;;;26.45;2.97;;;20.40;69.30;;;;;;7873475;28;20574;-55
2021/12/24 10:59:54;;;;;;;32.42;3.67;;;20.40;67.00;;;;;;7872688;28;20281;-55
2021/12/24 11:03:44;;;;;;;75.80;24.50;;;20.40;68.10;;;;;;7873373;28;20269;-52
2021/12/24 11:07:38;;;;;;;44.08;9.63;;;20.50;68.80;;;;;;7897629;28;20196;-55
2021/12/24 11:11:32;;;;;;;56.83;34.50;;;20.50;69.40;;;;;;7904859;28;20197;-55
2021/12/24 11:15:37;;;;;;;179.70;98.93;;;20.80;68.40;;;;;;7902905;28;20184;-55
2021/12/24 11:19:27;;;;;;;30.67;15.90;;;20.80;67.30;;;;;;7902286;28;20264;-55
2021/12/24 11:23:16;;;;;;;56.63;26.30;;;20.80;65.80;;;;;;7902556;28;20177;-54
2021/12/24 11:27:01;;;;;;;52.08;28.63;;;20.70;66.50;;;;;;7880652;28;20658;-54
2021/12/24 11:30:52;;;;;;;31.73;19.23;;;20.70;66.80;;;;;;7871736;28;20702;-55
2021/12/24 11:34:38;;;;;;;78.88;40.13;;;20.60;66.50;;;;;;7872572;28;20250;-55
2021/12/24 11:38:29;;;;;;;103.43;57.35;;;20.70;68.00;;;;;;7894916;28;20223;-56
2021/12/24 11:42:16;;;;;;;53.00;28.35;;;20.70;67.10;;;;;;7903513;28;20424;-51
2021/12/24 11:46:04;;;;;;;51.40;25.70;;;20.60;66.80;;;;;;7903733;28;20180;-57
2021/12/24 11:49:50;;;;;;;41.58;19.75;;;20.60;66.90;;;;;;7902562;28;20209;-54
2021/12/24 11:53:37;;;;;;;45.88;25.20;;;20.60;67.10;;;;;;7903466;28;20177;-51
2021/12/24 11:57:23;;;;;;;50.53;27.60;;;20.60;69.00;;;;;;7882612;28;20205;-55
2021/12/24 12:01:08;;;;;;;49.22;29.17;;;20.80;68.40;;;;;;7896780;28;20293;-57
2021/12/24 12:05:12;;;;;;;47.50;26.17;;;20.90;68.70;;;;;;7902560;28;20177;-51
2021/12/24 12:09:00;;;;;;;45.20;26.08;;;21.00;68.90;;;;;;7896615;28;20228;-51
2021/12/24 12:12:46;;;;;;;42.03;25.65;;;21.10;69.30;;;;;;7871354;28;20205;-51
2021/12/24 12:16:47;;;;;;;37.13;23.55;;;21.20;68.70;;;;;;7891656;28;20189;-52
2021/12/24 12:20:46;;;;;;;44.08;23.63;;;21.20;68.50;;;;;;7897559;28;20204;-55
2021/12/24 12:24:57;;;;;;;40.13;23.20;;;21.30;68.70;;;;;;7902400;28;20771;-52
2021/12/24 12:29:14;;;;;;;39.10;21.77;;;21.40;68.60;;;;;;7901479;28;20581;-51
2021/12/24 12:33:07;;;;;;;36.15;22.02;;;21.50;68.70;;;;;;7878747;28;20177;-54
2021/12/24 12:36:52;;;;;;;36.70;20.67;;;21.60;68.40;;;;;;7870583;28;20188;-54
2021/12/24 12:40:38;;;;;;;30.80;19.17;;;21.60;68.50;;;;;;7868608;28;20701;-51
2021/12/24 12:44:24;;;;;;;28.75;17.02;;;21.70;68.50;;;;;;7890748;28;20214;-52
2021/12/24 12:48:22;;;;;;;23.42;16.52;;;21.70;68.50;;;;;;7900825;28;20615;-53
2021/12/24 12:52:34;;;;;;;28.42;15.60;;;21.60;68.50;;;;;;7901214;28;20212;-54
2021/12/24 12:56:31;;;;;;;29.02;15.93;;;21.70;68.50;;;;;;7901356;28;20165;-55
2021/12/24 13:00:20;;;;;;;25.83;14.85;;;21.70;68.50;;;;;;7900380;28;20840;-54
2021/12/24 13:04:06;;;;;;;75.70;35.25;;;21.70;68.60;;;;;;7901198;28;20181;-54
2021/12/24 13:07:53;;;;;;;35.15;20.73;;;21.70;68.40;;;;;;7874878;28;20296;-55
2021/12/24 13:11:41;;;;;;;36.70;18.98;;;21.70;65.10;;;;;;7870853;28;20208;-56
2021/12/24 13:15:27;;;;;;;36.53;19.20;;;21.50;66.70;;;;;;7869941;28;20222;-58
2021/12/24 13:19:54;;;;;;;34.90;19.20;;;21.60;68.10;;;;;;7868539;28;20282;-54
2021/12/24 13:23:38;;;;;;;42.90;18.92;;;21.70;68.00;;;;;;7869187;28;20727;-57
2021/12/24 13:27:31;;;;;;;38.20;19.98;;;21.80;67.90;;;;;;7868939;28;20207;-56
2021/12/24 13:31:16;;;;;;;36.30;18.05;;;21.90;67.80;;;;;;7868881;28;20185;-58
2021/12/24 13:35:02;;;;;;;30.02;16.98;;;22.00;67.80;;;;;;7869119;28;20181;-56
2021/12/24 13:38:48;;;;;;;33.33;17.55;;;22.20;67.70;;;;;;7868225;28;20243;-55
2021/12/24 13:42:48;;;;;;;28.80;16.33;;;22.30;67.70;;;;;;7868018;28;20299;-59
2021/12/24 13:46:37;;;;;;;28.17;15.40;;;22.40;67.70;;;;;;7868873;28;20208;-58
2021/12/24 13:54:31;;;;;;;31.98;15.48;;;22.50;67.60;;;;;;7870781;28;20204;-56
2021/12/24 13:54:34;;;;;;;22.75;14.50;;;22.60;67.50;;;;;;7879449;28;20235;-56
2021/12/24 13:58:21;;;;;;;18.15;9.23;;;22.70;67.60;;;;;;7877891;28;20544;-55
2021/12/24 14:02:10;;;;;;;22.15;13.18;;;22.60;61.00;;;;;;7878902;28;20193;-56
2021/12/24 14:06:00;;;;;;;22.55;12.88;;;22.50;66.70;;;;;;7879019;28;20231;-52
2021/12/24 14:09:45;;;;;;;23.60;12.52;;;22.60;67.00;;;;;;7898117;28;20589;-54
2021/12/24 14:13:35;;;;;;;34.70;16.80;;;22.60;67.00;;;;;;7909645;28;20279;-55
2021/12/24 14:25:16;;;;;;;21.92;13.68;;;22.60;67.50;;;;;;7910212;28;20188;-55
2021/12/24 14:29:05;;;;;;;22.70;12.70;;;22.70;67.50;;;;;;7909302;28;20211;-55
2021/12/24 14:32:51;;;;;;;23.08;12.90;;;22.80;67.70;;;;;;7909836;28;20728;-54
2021/12/24 14:36:36;;;;;;;21.92;13.45;;;22.90;67.70;;;;;;7910012;28;20199;-53
2021/12/24 14:40:23;;;;;;;19.35;12.90;;;23.10;68.50;;;;;;7909113;28;20253;-55
2021/12/24 14:44:27;;;;;;;17.50;11.60;;;23.40;67.60;;;;;;7910159;28;20180;-53
2021/12/24 14:48:17;;;;;;;17.23;11.40;;;23.60;67.60;;;;;;7908071;28;20227;-56
2021/12/24 14:52:19;;;;;;;19.58;10.77;;;23.80;67.40;;;;;;7901340;22;20229;-60
2021/12/24 14:56:08;;;;;;;13.50;10.00;;;24.00;67.40;;;;;;7816456;28;20171;-57
2021/12/24 14:59:54;;;;;;;15.10;9.15;;;24.10;67.50;;;;;;7817066;28;20182;-58
2021/12/24 15:03:42;;;;;;;17.08;8.18;;;24.20;67.80;;;;;;7842772;28;20676;-60
2021/12/24 15:07:31;;;;;;;15.32;7.93;;;24.20;68.10;;;;;;7870205;28;20185;-60
2021/12/24 15:11:29;;;;;;;17.15;8.27;;;24.30;68.00;;;;;;7872661;28;20202;-55
2021/12/24 15:15:18;;;;;;;19.90;7.93;;;24.30;67.90;;;;;;7873379;28;20227;-57
2021/12/24 15:19:05;;;;;;;20.83;6.88;;;24.20;68.10;;;;;;7872357;28;20276;-60
2021/12/24 15:22:51;;;;;;;32.95;8.93;;;24.20;69.30;;;;;;7872933;28;20201;-59
2021/12/24 15:26:36;;;;;;;26.10;8.95;;;24.30;68.70;;;;;;7872866;28;20181;-60
2021/12/24 15:30:22;;;;;;;32.13;9.32;;;24.20;69.70;;;;;;7871740;28;20656;-60
2021/12/24 15:34:07;;;;;;;26.08;10.07;;;24.30;70.00;;;;;;7872626;28;20251;-60
2021/12/24 15:37:53;;;;;;;25.50;10.57;;;24.50;70.30;;;;;;7871757;28;20181;-61
2021/12/24 15:41:45;;;;;;;39.85;12.07;;;24.60;70.50;;;;;;7872547;28;20227;-60
2021/12/24 15:45:35;;;;;;;40.83;12.50;;;24.60;70.90;;;;;;7872247;28;20538;-59
2021/12/24 15:49:20;;;;;;;43.65;11.82;;;24.60;71.30;;;;;;7871287;28;20205;-60
2021/12/24 15:53:06;;;;;;;38.88;12.50;;;24.60;71.60;;;;;;7871760;28;20209;-60
2021/12/24 15:56:51;;;;;;;34.75;9.55;;;24.60;72.20;;;;;;7871945;28;20257;-61
2021/12/24 16:00:40;;;;;;;41.47;11.52;;;24.50;70.50;;;;;;7870990;28;20197;-60
2021/12/24 16:04:26;;;;;;;41.50;10.63;;;24.30;71.00;;;;;;7871727;28;20180;-60
2021/12/24 16:08:11;;;;;;;37.40;11.25;;;24.30;72.30;;;;;;7870809;28;20233;-61
2021/12/24 16:11:57;;;;;;;45.40;11.15;;;24.20;72.50;;;;;;7871532;28;20196;-60
2021/12/24 16:15:47;;;;;;;30.88;9.23;;;24.30;73.00;;;;;;7870392;28;20173;-60
2021/12/24 16:19:32;;;;;;;32.55;9.35;;;24.00;71.60;;;;;;7870748;28;20185;-59
2021/12/24 16:23:18;;;;;;;34.50;10.43;;;23.90;71.70;;;;;;7871340;28;20225;-59
2021/12/24 16:27:04;;;;;;;33.78;10.18;;;23.60;71.80;;;;;;7871220;28;20180;-59
2021/12/24 16:30:49;;;;;;;40.28;10.82;;;23.60;72.80;;;;;;7869993;28;20240;-59
2021/12/24 16:34:35;;;;;;;39.45;9.77;;;23.60;73.20;;;;;;7870637;28;20189;-59
2021/12/24 16:38:21;;;;;;;41.45;10.50;;;23.60;73.80;;;;;;7869978;28;20228;-58
2021/12/24 16:42:07;;;;;;;30.55;10.45;;;23.40;73.40;;;;;;7870067;28;20338;-59
2021/12/24 16:45:53;;;;;;;41.50;11.75;;;23.40;74.20;;;;;;7870076;28;20178;-61
2021/12/24 16:49:38;;;;;;;46.85;16.90;;;23.30;73.80;;;;;;7869343;28;20212;-60
2021/12/24 16:53:24;;;;;;;42.05;15.15;;;23.10;73.70;;;;;;7869841;28;20220;-61
2021/12/24 16:57:09;;;;;;;32.80;14.65;;;23.10;73.70;;;;;;7869990;28;20723;-60
2021/12/24 17:00:58;;;;;;;40.90;13.88;;;23.00;73.30;;;;;;7869003;28;20560;-61
2021/12/24 17:04:44;;;;;;;45.55;13.93;;;23.00;73.10;;;;;;7869626;28;20189;-61
2021/12/24 17:08:29;;;;;;;39.50;13.10;;;22.90;73.00;;;;;;7868765;28;20212;-61
2021/12/24 17:12:15;;;;;;;33.65;12.50;;;22.90;72.80;;;;;;7869362;28;20217;-61
2021/12/24 17:16:00;;;;;;;40.05;12.65;;;22.80;72.80;;;;;;7869470;28;20233;-60
2021/12/24 17:19:46;;;;;;;34.17;11.77;;;22.80;72.70;;;;;;7868888;28;20235;-60
2021/12/24 17:23:31;;;;;;;36.33;11.63;;;22.70;72.60;;;;;;7869809;28;20181;-60
2021/12/24 17:27:17;;;;;;;34.45;10.23;;;22.70;72.70;;;;;;7869170;28;20604;-60
2021/12/24 17:31:03;;;;;;;25.52;10.07;;;22.60;72.60;;;;;;7868777;28;20248;-59
2021/12/24 17:34:48;;;;;;;27.30;10.02;;;22.50;72.50;;;;;;7869280;28;20196;-60
2021/12/24 17:38:34;;;;;;;20.70;9.55;;;22.50;72.60;;;;;;7868766;28;20257;-60
2021/12/24 17:42:19;;;;;;;24.70;9.30;;;22.40;72.50;;;;;;7869223;28;20205;-60
2021/12/24 17:46:06;;;;;;;21.30;9.27;;;22.30;72.60;;;;;;7869241;28;20227;-61
2021/12/24 17:49:52;;;;;;;19.42;8.65;;;22.30;72.70;;;;;;7868167;28;20207;-61
2021/12/24 17:53:38;;;;;;;17.00;8.45;;;22.30;73.00;;;;;;7869464;28;20642;-60
2021/12/24 17:57:23;;;;;;;16.70;8.07;;;22.30;72.90;;;;;;7869106;28;20306;-60
2021/12/24 18:01:09;;;;;;;22.30;8.10;;;22.30;72.70;;;;;;7867966;28;20632;-60
2021/12/24 18:04:54;;;;;;;17.70;7.15;;;22.30;72.30;;;;;;7868830;28;20180;-60
2021/12/24 18:08:39;;;;;;;23.17;6.97;;;22.30;72.30;;;;;;7868394;28;20204;-59
2021/12/24 18:12:25;;;;;;;16.65;6.43;;;22.30;70.60;;;;;;7869160;28;20197;-58
2021/12/24 18:16:11;;;;;;;25.45;6.60;;;22.10;65.00;;;;;;7869446;28;20663;-59
2021/12/24 18:19:56;;;;;;;17.83;6.55;;;22.00;71.30;;;;;;7868594;28;20201;-61
2021/12/24 18:23:44;;;;;;;16.83;6.90;;;22.00;71.80;;;;;;7868647;28;20253;-61
2021/12/24 18:27:30;;;;;;;27.98;6.38;;;22.00;72.00;;;;;;7867843;28;21108;-60
2021/12/24 18:31:15;;;;;;;30.33;6.72;;;22.10;72.40;;;;;;7868316;28;20268;-58
2021/12/24 18:35:02;;;;;;;25.98;5.85;;;22.20;72.50;;;;;;7867239;28;20245;-60
2021/12/24 18:38:48;;;;;;;17.30;5.40;;;22.30;72.50;;;;;;7869114;28;20271;-61
2021/12/24 18:42:34;;;;;;;15.43;5.43;;;22.40;72.50;;;;;;7873101;28;20200;-61
2021/12/24 18:46:25;;;;;;;19.02;5.00;;;22.50;72.60;;;;;;7871838;28;20274;-61
2021/12/24 18:50:11;;;;;;;18.20;5.40;;;22.60;72.60;;;;;;7872263;28;20583;-60
2021/12/24 18:53:56;;;;;;;15.05;5.35;;;22.70;72.40;;;;;;7872994;28;20177;-61
2021/12/24 18:57:42;;;;;;;16.13;4.68;;;22.70;72.40;;;;;;7872142;28;20680;-60
2021/12/24 19:01:28;;;;;;;12.25;4.70;;;22.80;72.40;;;;;;7872507;28;20246;-61
2021/12/24 19:05:14;;;;;;;14.68;4.38;;;22.80;72.40;;;;;;7873144;28;20200;-60
2021/12/24 19:08:59;;;;;;;19.15;4.60;;;22.70;71.80;;;;;;7871853;28;20285;-58
2021/12/24 19:12:45;;;;;;;17.92;4.40;;;22.70;72.40;;;;;;7872847;28;20208;-60
2021/12/24 19:16:30;;;;;;;11.98;4.20;;;22.60;72.10;;;;;;7858371;28;20190;-61
2021/12/24 19:20:18;;;;;;;27.35;4.45;;;22.60;72.60;;;;;;7851510;28;20197;-59
2021/12/24 19:24:04;;;;;;;25.40;4.32;;;22.60;72.70;;;;;;7872601;28;20182;-59
2021/12/24 19:27:50;;;;;;;28.27;4.82;;;22.70;72.80;;;;;;7871732;28;20185;-59
2021/12/24 19:31:36;;;;;;;23.10;3.60;;;22.60;72.80;;;;;;7871935;28;20190;-59
2021/12/24 19:35:21;;;;;;;21.55;4.25;;;22.60;72.80;;;;;;7871825;28;20175;-60
2021/12/24 19:39:07;;;;;;;27.52;3.45;;;22.50;73.00;;;;;;7870978;28;20186;-58
2021/12/24 19:42:53;;;;;;;16.50;3.60;;;22.50;73.20;;;;;;7871317;28;20227;-59
2021/12/24 19:46:38;;;;;;;23.48;4.57;;;22.50;73.30;;;;;;7871413;28;20661;-60
2021/12/24 19:50:25;;;;;;;16.52;3.53;;;22.50;73.30;;;;;;7870076;28;20217;-60
2021/12/24 19:54:11;;;;;;;20.42;3.40;;;22.50;73.30;;;;;;7871045;28;20173;-60
2021/12/24 19:57:56;;;;;;;17.15;3.47;;;22.50;73.50;;;;;;7870427;28;20242;-61
2021/12/24 20:01:42;;;;;;;30.30;3.78;;;22.50;73.60;;;;;;7870616;28;20197;-60
2021/12/24 20:05:28;;;;;;;24.90;3.10;;;22.50;73.70;;;;;;7841981;28;20545;-59
2021/12/24 20:09:13;;;;;;;24.95;3.55;;;22.50;73.50;;;;;;7838935;28;20209;-61
2021/12/24 20:12:59;;;;;;;16.85;3.25;;;22.50;73.60;;;;;;7839755;28;20202;-57
2021/12/24 20:16:48;;;;;;;25.55;3.80;;;22.50;73.40;;;;;;7839840;28;20232;-59
2021/12/24 20:20:34;;;;;;;29.92;3.90;;;22.40;73.60;;;;;;7839326;28;20229;-61
2021/12/24 20:24:20;;;;;;;18.48;2.80;;;22.30;73.90;;;;;;7840101;28;20681;-60
2021/12/24 20:28:08;;;;;;;19.70;2.83;;;22.40;74.20;;;;;;7839185;28;20284;-55
2021/12/24 20:31:54;;;;;;;37.70;3.60;;;22.30;74.20;;;;;;7839820;28;20253;-59
2021/12/24 20:35:40;;;;;;;14.10;3.10;;;22.30;74.50;;;;;;7839776;28;20534;-61
2021/12/24 20:39:26;;;;;;;19.15;2.92;;;22.20;74.60;;;;;;7838977;28;20188;-61
2021/12/24 20:43:12;;;;;;;29.42;3.10;;;22.30;74.70;;;;;;7839395;28;20563;-61
2021/12/24 20:46:57;;;;;;;15.88;2.83;;;22.20;74.50;;;;;;7839370;28;20224;-61
2021/12/24 20:50:43;;;;;;;15.85;2.50;;;22.20;74.70;;;;;;7863133;28;20224;-60
2021/12/24 20:54:28;;;;;;;15.13;2.60;;;22.30;74.90;;;;;;7871163;28;20169;-60
2021/12/24 20:58:14;;;;;;;11.95;2.17;;;22.30;74.80;;;;;;7869378;28;20208;-60
2021/12/24 21:01:59;;;;;;;24.33;3.38;;;22.20;74.50;;;;;;7869536;28;20200;-63
2021/12/24 21:05:45;;;;;;;17.48;2.60;;;22.20;75.60;;;;;;7869921;28;20247;-61
2021/12/24 21:09:31;;;;;;;15.57;2.47;;;22.20;74.80;;;;;;7838183;28;20662;-61
2021/12/24 21:13:19;;;;;;;18.50;2.78;;;22.10;75.00;;;;;;7838647;28;20189;-64